sensor_id;sensor_type;location;lat;lon;timestamp;temperature;humidity
11112;DHT22;5609;49.466;8.468;2022-12-18T00:01:52;-0.90;99.90
11112;DHT22;5609;49.466;8.468;2022-12-18T00:04:21;-0.80;99.90
11112;DHT22;5609;49.466;8.468;2022-12-18T00:06:50;-0.90;99.90
11112;DHT22;5609;49.466;8.468;2022-12-18T00:09:17;-1.00;99.90
11112;DHT22;5609;49.466;8.468;2022-12-18T00:11:43;-1.10;99.90
11112;DHT22;5609;49.466;8.468;2022-12-18T00:14:12;-1.00;99.90
11112;DHT22;5609;49.466;8.468;2022-12-18T00:16:39;-1.40;99.90
11112;DHT22;5609;49.466;8.468;2022-12-18T00:19:06;-1.40;99.90
11112;DHT22;5609;49.466;8.468;2022-12-18T00:21:33;-1.70;99.90
11112;DHT22;5609;49.466;8.468;2022-12-18T00:24:01;-1.50;99.90
11112;DHT22;5609;49.466;8.468;2022-12-18T00:26:30;-1.40;99.90
11112;DHT22;5609;49.466;8.468;2022-12-18T00:28:59;-1.50;99.90
11112;DHT22;5609;49.466;8.468;2022-12-18T00:31:26;-1.10;99.90
11112;DHT22;5609;49.466;8.468;2022-12-18T01:01:09;-0.80;99.90
11112;DHT22;5609;49.466;8.468;2022-12-18T01:03:36;-1.30;99.90
11112;DHT22;5609;49.466;8.468;2022-12-18T01:06:06;-1.40;99.90
11112;DHT22;5609;49.466;8.468;2022-12-18T01:08:32;-0.90;99.90
11112;DHT22;5609;49.466;8.468;2022-12-18T01:10:59;-0.70;99.90
11112;DHT22;5609;49.466;8.468;2022-12-18T01:13:26;-0.70;99.90
11112;DHT22;5609;49.466;8.468;2022-12-18T01:15:54;-0.80;99.90
11112;DHT22;5609;49.466;8.468;2022-12-18T01:45:28;-0.80;99.90
11112;DHT22;5609;49.466;8.468;2022-12-18T01:47:57;-0.60;99.90
11112;DHT22;5609;49.466;8.468;2022-12-18T01:50:30;-0.60;99.90
11112;DHT22;5609;49.466;8.468;2022-12-18T01:53:01;-0.60;99.90
11112;DHT22;5609;49.466;8.468;2022-12-18T01:55:31;-0.60;99.90
11112;DHT22;5609;49.466;8.468;2022-12-18T01:57:59;-0.30;99.90
11112;DHT22;5609;49.466;8.468;2022-12-18T02:00:27;-0.20;99.90
11112;DHT22;5609;49.466;8.468;2022-12-18T02:02:54;-0.20;99.90
11112;DHT22;5609;49.466;8.468;2022-12-18T02:05:29;-0.30;99.90
11112;DHT22;5609;49.466;8.468;2022-12-18T02:08:07;0.30;99.90
11112;DHT22;5609;49.466;8.468;2022-12-18T02:10:41;-0.10;99.90
11112;DHT22;5609;49.466;8.468;2022-12-18T02:13:12;-0.80;99.90
11112;DHT22;5609;49.466;8.468;2022-12-18T02:15:45;-0.90;99.90
11112;DHT22;5609;49.466;8.468;2022-12-18T02:18:18;-1.40;99.90
11112;DHT22;5609;49.466;8.468;2022-12-18T02:20:50;-1.10;99.90
11112;DHT22;5609;49.466;8.468;2022-12-18T02:23:35;-1.00;99.90
11112;DHT22;5609;49.466;8.468;2022-12-18T02:26:20;-1.40;99.90
11112;DHT22;5609;49.466;8.468;2022-12-18T02:28:53;-2.10;99.90
11112;DHT22;5609;49.466;8.468;2022-12-18T02:31:26;-1.80;99.90
11112;DHT22;5609;49.466;8.468;2022-12-18T02:34:03;-1.80;99.90
11112;DHT22;5609;49.466;8.468;2022-12-18T02:36:32;-1.50;99.90
11112;DHT22;5609;49.466;8.468;2022-12-18T02:39:02;-1.20;99.90
11112;DHT22;5609;49.466;8.468;2022-12-18T02:41:31;-1.50;99.90
11112;DHT22;5609;49.466;8.468;2022-12-18T02:43:59;-1.30;99.90
11112;DHT22;5609;49.466;8.468;2022-12-18T02:46:32;-1.10;99.90
11112;DHT22;5609;49.466;8.468;2022-12-18T02:49:06;-1.10;99.90
11112;DHT22;5609;49.466;8.468;2022-12-18T02:54:10;-0.80;99.90
11112;DHT22;5609;49.466;8.468;2022-12-18T03:34:20;-0.50;99.90
11112;DHT22;5609;49.466;8.468;2022-12-18T03:36:48;-0.60;99.90
11112;DHT22;5609;49.466;8.468;2022-12-18T03:39:15;-0.60;99.90
11112;DHT22;5609;49.466;8.468;2022-12-18T05:15:30;-0.20;99.90
11112;DHT22;5609;49.466;8.468;2022-12-18T05:17:57;0.30;99.90
11112;DHT22;5609;49.466;8.468;2022-12-18T05:20:24;-0.10;99.90
11112;DHT22;5609;49.466;8.468;2022-12-18T05:22:52;-0.10;99.90
11112;DHT22;5609;49.466;8.468;2022-12-18T05:25:19;-0.10;99.90
11112;DHT22;5609;49.466;8.468;2022-12-18T05:27:46;-0.30;99.90
11112;DHT22;5609;49.466;8.468;2022-12-18T05:30:14;-0.40;99.90
11112;DHT22;5609;49.466;8.468;2022-12-18T05:32:42;-0.10;99.90
11112;DHT22;5609;49.466;8.468;2022-12-18T05:35:10;-0.10;99.90
11112;DHT22;5609;49.466;8.468;2022-12-18T05:37:37;0.60;99.90
11112;DHT22;5609;49.466;8.468;2022-12-18T05:40:05;0.90;99.90
11112;DHT22;5609;49.466;8.468;2022-12-18T05:42:32;0.80;99.90
11112;DHT22;5609;49.466;8.468;2022-12-18T05:44:58;0.50;99.90
11112;DHT22;5609;49.466;8.468;2022-12-18T05:47:26;0.50;99.90
11112;DHT22;5609;49.466;8.468;2022-12-18T05:49:55;0.30;99.90
11112;DHT22;5609;49.466;8.468;2022-12-18T05:52:22;0.40;99.90
11112;DHT22;5609;49.466;8.468;2022-12-18T05:54:48;0.30;99.90
11112;DHT22;5609;49.466;8.468;2022-12-18T05:57:15;0.70;99.90
11112;DHT22;5609;49.466;8.468;2022-12-18T05:59:42;0.90;99.90
11112;DHT22;5609;49.466;8.468;2022-12-18T06:02:09;0.90;99.90
11112;DHT22;5609;49.466;8.468;2022-12-18T06:04:35;1.10;99.90
11112;DHT22;5609;49.466;8.468;2022-12-18T06:07:07;1.00;99.90
11112;DHT22;5609;49.466;8.468;2022-12-18T06:09:33;1.10;99.90
11112;DHT22;5609;49.466;8.468;2022-12-18T06:12:00;0.90;99.90
11112;DHT22;5609;49.466;8.468;2022-12-18T06:14:27;1.30;99.90
11112;DHT22;5609;49.466;8.468;2022-12-18T06:16:54;1.40;99.90
11112;DHT22;5609;49.466;8.468;2022-12-18T06:19:21;1.50;99.90
11112;DHT22;5609;49.466;8.468;2022-12-18T06:21:48;1.40;99.90
11112;DHT22;5609;49.466;8.468;2022-12-18T06:24:17;1.30;99.90
11112;DHT22;5609;49.466;8.468;2022-12-18T06:26:43;1.00;99.90
11112;DHT22;5609;49.466;8.468;2022-12-18T06:29:10;1.10;99.90
11112;DHT22;5609;49.466;8.468;2022-12-18T06:31:37;1.20;99.90
11112;DHT22;5609;49.466;8.468;2022-12-18T06:34:04;1.60;99.90
11112;DHT22;5609;49.466;8.468;2022-12-18T06:36:31;1.90;99.90
11112;DHT22;5609;49.466;8.468;2022-12-18T06:38:58;1.70;99.90
11112;DHT22;5609;49.466;8.468;2022-12-18T06:41:26;1.50;99.90
11112;DHT22;5609;49.466;8.468;2022-12-18T06:43:53;1.10;99.90
11112;DHT22;5609;49.466;8.468;2022-12-18T06:46:20;1.30;99.90
11112;DHT22;5609;49.466;8.468;2022-12-18T06:48:48;0.90;99.90
11112;DHT22;5609;49.466;8.468;2022-12-18T06:51:17;0.40;99.90
11112;DHT22;5609;49.466;8.468;2022-12-18T06:53:43;0.40;99.90
11112;DHT22;5609;49.466;8.468;2022-12-18T06:56:10;0.20;99.90
11112;DHT22;5609;49.466;8.468;2022-12-18T06:58:38;0.30;99.90
11112;DHT22;5609;49.466;8.468;2022-12-18T07:01:07;-0.10;99.90
11112;DHT22;5609;49.466;8.468;2022-12-18T07:03:35;-0.10;99.90
11112;DHT22;5609;49.466;8.468;2022-12-18T07:06:03;0.00;99.90
11112;DHT22;5609;49.466;8.468;2022-12-18T07:08:30;-0.20;99.90
11112;DHT22;5609;49.466;8.468;2022-12-18T07:10:57;0.20;99.90
11112;DHT22;5609;49.466;8.468;2022-12-18T07:13:24;0.40;99.90
11112;DHT22;5609;49.466;8.468;2022-12-18T07:15:52;0.00;99.90
11112;DHT22;5609;49.466;8.468;2022-12-18T07:18:19;0.30;99.90
11112;DHT22;5609;49.466;8.468;2022-12-18T07:20:45;0.50;99.90
11112;DHT22;5609;49.466;8.468;2022-12-18T07:23:12;0.60;99.90
11112;DHT22;5609;49.466;8.468;2022-12-18T07:25:39;0.70;99.90
11112;DHT22;5609;49.466;8.468;2022-12-18T07:28:06;0.80;99.90
11112;DHT22;5609;49.466;8.468;2022-12-18T07:30:32;0.60;99.90
11112;DHT22;5609;49.466;8.468;2022-12-18T07:33:01;0.40;99.90
11112;DHT22;5609;49.466;8.468;2022-12-18T07:35:27;0.10;99.90
11112;DHT22;5609;49.466;8.468;2022-12-18T07:37:54;0.20;99.90
11112;DHT22;5609;49.466;8.468;2022-12-18T07:40:21;-0.10;99.90
11112;DHT22;5609;49.466;8.468;2022-12-18T07:42:47;0.10;99.90
11112;DHT22;5609;49.466;8.468;2022-12-18T07:45:14;0.20;99.90
11112;DHT22;5609;49.466;8.468;2022-12-18T07:47:41;0.30;99.90
11112;DHT22;5609;49.466;8.468;2022-12-18T07:50:09;0.20;99.90
11112;DHT22;5609;49.466;8.468;2022-12-18T07:52:36;0.10;99.90
11112;DHT22;5609;49.466;8.468;2022-12-18T07:55:03;0.10;99.90
11112;DHT22;5609;49.466;8.468;2022-12-18T07:57:30;-0.10;99.90
11112;DHT22;5609;49.466;8.468;2022-12-18T07:59:57;0.30;99.90
11112;DHT22;5609;49.466;8.468;2022-12-18T08:02:23;0.20;99.90
11112;DHT22;5609;49.466;8.468;2022-12-18T08:04:50;-0.10;99.90
11112;DHT22;5609;49.466;8.468;2022-12-18T08:07:18;-0.20;99.90
11112;DHT22;5609;49.466;8.468;2022-12-18T08:09:45;0.10;99.90
11112;DHT22;5609;49.466;8.468;2022-12-18T08:12:11;0.40;99.90
11112;DHT22;5609;49.466;8.468;2022-12-18T08:14:38;0.30;99.90
11112;DHT22;5609;49.466;8.468;2022-12-18T08:17:05;0.10;99.90
11112;DHT22;5609;49.466;8.468;2022-12-18T08:19:32;0.00;99.90
11112;DHT22;5609;49.466;8.468;2022-12-18T08:21:58;0.00;99.90
11112;DHT22;5609;49.466;8.468;2022-12-18T08:24:27;0.00;99.90
11112;DHT22;5609;49.466;8.468;2022-12-18T08:26:53;-0.20;99.90
11112;DHT22;5609;49.466;8.468;2022-12-18T08:29:22;0.00;99.90
11112;DHT22;5609;49.466;8.468;2022-12-18T08:31:49;0.00;99.90
11112;DHT22;5609;49.466;8.468;2022-12-18T08:34:16;0.00;99.90
11112;DHT22;5609;49.466;8.468;2022-12-18T08:36:42;-0.10;99.90
11112;DHT22;5609;49.466;8.468;2022-12-18T08:39:09;0.30;99.90
11112;DHT22;5609;49.466;8.468;2022-12-18T08:41:37;0.20;99.90
11112;DHT22;5609;49.466;8.468;2022-12-18T08:44:04;0.20;99.90
11112;DHT22;5609;49.466;8.468;2022-12-18T08:46:48;0.40;99.90
11112;DHT22;5609;49.466;8.468;2022-12-18T08:49:15;0.90;99.90
11112;DHT22;5609;49.466;8.468;2022-12-18T08:51:42;0.50;99.90
11112;DHT22;5609;49.466;8.468;2022-12-18T08:54:10;0.70;99.90
11112;DHT22;5609;49.466;8.468;2022-12-18T08:56:39;0.90;99.90
11112;DHT22;5609;49.466;8.468;2022-12-18T08:59:06;0.90;99.90
11112;DHT22;5609;49.466;8.468;2022-12-18T09:01:32;0.90;99.90
11112;DHT22;5609;49.466;8.468;2022-12-18T09:03:59;1.10;99.90
11112;DHT22;5609;49.466;8.468;2022-12-18T09:06:26;1.40;99.90
11112;DHT22;5609;49.466;8.468;2022-12-18T09:08:52;0.80;99.90
11112;DHT22;5609;49.466;8.468;2022-12-18T09:11:21;1.30;99.90
11112;DHT22;5609;49.466;8.468;2022-12-18T09:13:50;0.90;99.90
11112;DHT22;5609;49.466;8.468;2022-12-18T09:16:18;0.20;99.90
11112;DHT22;5609;49.466;8.468;2022-12-18T09:18:45;-0.40;99.90
11112;DHT22;5609;49.466;8.468;2022-12-18T09:21:13;-0.90;99.90
11112;DHT22;5609;49.466;8.468;2022-12-18T09:23:41;-1.10;99.90
11112;DHT22;5609;49.466;8.468;2022-12-18T09:26:08;-1.30;99.90
11112;DHT22;5609;49.466;8.468;2022-12-18T09:28:35;-1.50;99.90
11112;DHT22;5609;49.466;8.468;2022-12-18T09:31:07;-2.10;99.90
11112;DHT22;5609;49.466;8.468;2022-12-18T09:33:34;-2.20;99.90
11112;DHT22;5609;49.466;8.468;2022-12-18T09:36:02;-2.40;99.90
11112;DHT22;5609;49.466;8.468;2022-12-18T09:41:00;-2.50;99.90
11112;DHT22;5609;49.466;8.468;2022-12-18T09:43:33;-2.70;99.90
11112;DHT22;5609;49.466;8.468;2022-12-18T09:46:06;-2.50;99.90
11112;DHT22;5609;49.466;8.468;2022-12-18T09:48:35;-2.50;99.90
11112;DHT22;5609;49.466;8.468;2022-12-18T09:51:13;-2.60;99.90
11112;DHT22;5609;49.466;8.468;2022-12-18T09:53:44;-2.80;99.90
11112;DHT22;5609;49.466;8.468;2022-12-18T09:56:16;-2.70;99.90
11112;DHT22;5609;49.466;8.468;2022-12-18T09:58:46;-2.80;99.90
11112;DHT22;5609;49.466;8.468;2022-12-18T10:03:47;-2.90;99.90
11112;DHT22;5609;49.466;8.468;2022-12-18T10:06:18;-3.10;99.90
11112;DHT22;5609;49.466;8.468;2022-12-18T10:08:51;-3.00;99.90
11112;DHT22;5609;49.466;8.468;2022-12-18T10:11:29;-2.90;99.90
11112;DHT22;5609;49.466;8.468;2022-12-18T10:14:03;-2.80;99.90
11112;DHT22;5609;49.466;8.468;2022-12-18T10:16:38;-2.70;99.90
11112;DHT22;5609;49.466;8.468;2022-12-18T10:19:21;-2.60;99.90
11112;DHT22;5609;49.466;8.468;2022-12-18T10:21:57;-2.30;99.90
11112;DHT22;5609;49.466;8.468;2022-12-18T10:24:33;-2.10;99.90
11112;DHT22;5609;49.466;8.468;2022-12-18T10:27:12;-2.10;99.90
11112;DHT22;5609;49.466;8.468;2022-12-18T10:29:41;-2.00;99.90
11112;DHT22;5609;49.466;8.468;2022-12-18T10:32:14;-2.00;99.90
11112;DHT22;5609;49.466;8.468;2022-12-18T10:34:44;-1.90;99.90
11112;DHT22;5609;49.466;8.468;2022-12-18T10:37:16;-1.60;99.90
11112;DHT22;5609;49.466;8.468;2022-12-18T10:39:44;-1.30;99.90
11112;DHT22;5609;49.466;8.468;2022-12-18T10:42:15;-1.20;99.90
11112;DHT22;5609;49.466;8.468;2022-12-18T10:44:44;-1.10;99.90
11112;DHT22;5609;49.466;8.468;2022-12-18T10:47:14;-1.00;99.90
11112;DHT22;5609;49.466;8.468;2022-12-18T10:49:47;-0.90;99.90
11112;DHT22;5609;49.466;8.468;2022-12-18T10:52:17;-0.80;99.90
11112;DHT22;5609;49.466;8.468;2022-12-18T10:54:50;-0.70;99.90
11112;DHT22;5609;49.466;8.468;2022-12-18T10:57:30;-0.60;99.90
11112;DHT22;5609;49.466;8.468;2022-12-18T10:59:59;-0.60;99.90
11112;DHT22;5609;49.466;8.468;2022-12-18T11:02:34;-0.50;99.90
11112;DHT22;5609;49.466;8.468;2022-12-18T11:05:03;-0.30;99.90
11112;DHT22;5609;49.466;8.468;2022-12-18T11:07:47;-0.10;99.90
11112;DHT22;5609;49.466;8.468;2022-12-18T11:10:16;-0.10;99.90
11112;DHT22;5609;49.466;8.468;2022-12-18T11:12:44;-0.30;99.90
11112;DHT22;5609;49.466;8.468;2022-12-18T11:15:15;-0.20;99.90
11112;DHT22;5609;49.466;8.468;2022-12-18T11:17:47;-0.10;99.90
11112;DHT22;5609;49.466;8.468;2022-12-18T11:20:31;-0.10;99.90
11112;DHT22;5609;49.466;8.468;2022-12-18T11:23:00;-0.10;99.90
11112;DHT22;5609;49.466;8.468;2022-12-18T11:25:27;0.00;99.90
11112;DHT22;5609;49.466;8.468;2022-12-18T11:27:56;-0.10;99.90
11112;DHT22;5609;49.466;8.468;2022-12-18T11:30:26;0.10;99.90
11112;DHT22;5609;49.466;8.468;2022-12-18T11:32:57;-0.10;99.90
11112;DHT22;5609;49.466;8.468;2022-12-18T11:35:32;0.00;99.90
11112;DHT22;5609;49.466;8.468;2022-12-18T11:38:06;0.00;99.90
11112;DHT22;5609;49.466;8.468;2022-12-18T11:40:38;0.20;99.90
11112;DHT22;5609;49.466;8.468;2022-12-18T11:43:10;0.10;99.90
11112;DHT22;5609;49.466;8.468;2022-12-18T11:45:43;0.20;99.90
11112;DHT22;5609;49.466;8.468;2022-12-18T11:48:17;0.30;99.90
11112;DHT22;5609;49.466;8.468;2022-12-18T11:50:48;0.20;99.90
11112;DHT22;5609;49.466;8.468;2022-12-18T11:53:17;0.30;99.90
11112;DHT22;5609;49.466;8.468;2022-12-18T11:55:51;0.40;99.90
11112;DHT22;5609;49.466;8.468;2022-12-18T11:58:28;0.50;99.90
11112;DHT22;5609;49.466;8.468;2022-12-18T12:01:06;0.60;99.90
11112;DHT22;5609;49.466;8.468;2022-12-18T12:06:40;0.50;99.90
11112;DHT22;5609;49.466;8.468;2022-12-18T12:09:16;0.60;99.90
11112;DHT22;5609;49.466;8.468;2022-12-18T12:11:55;0.70;99.90
11112;DHT22;5609;49.466;8.468;2022-12-18T12:14:34;0.70;99.90
11112;DHT22;5609;49.466;8.468;2022-12-18T12:17:10;0.60;99.90
11112;DHT22;5609;49.466;8.468;2022-12-18T12:19:45;0.60;99.90
11112;DHT22;5609;49.466;8.468;2022-12-18T12:22:24;0.60;99.90
11112;DHT22;5609;49.466;8.468;2022-12-18T12:27:50;0.60;99.90
11112;DHT22;5609;49.466;8.468;2022-12-18T12:30:26;0.50;99.90
11112;DHT22;5609;49.466;8.468;2022-12-18T12:33:05;0.60;99.90
11112;DHT22;5609;49.466;8.468;2022-12-18T12:35:46;0.60;99.90
11112;DHT22;5609;49.466;8.468;2022-12-18T12:38:19;0.70;99.90
11112;DHT22;5609;49.466;8.468;2022-12-18T12:40:51;0.80;99.90
11112;DHT22;5609;49.466;8.468;2022-12-18T12:43:24;0.80;99.90
11112;DHT22;5609;49.466;8.468;2022-12-18T12:45:55;0.80;99.90
11112;DHT22;5609;49.466;8.468;2022-12-18T12:48:37;0.70;99.90
11112;DHT22;5609;49.466;8.468;2022-12-18T12:51:13;0.90;99.90
11112;DHT22;5609;49.466;8.468;2022-12-18T12:53:40;0.80;99.90
11112;DHT22;5609;49.466;8.468;2022-12-18T12:56:10;0.70;99.90
11112;DHT22;5609;49.466;8.468;2022-12-18T12:58:51;0.60;99.90
11112;DHT22;5609;49.466;8.468;2022-12-18T13:01:25;0.60;99.90
11112;DHT22;5609;49.466;8.468;2022-12-18T13:04:01;0.80;99.90
11112;DHT22;5609;49.466;8.468;2022-12-18T13:06:39;0.90;99.90
11112;DHT22;5609;49.466;8.468;2022-12-18T13:09:07;0.90;99.90
11112;DHT22;5609;49.466;8.468;2022-12-18T13:11:38;0.80;99.90
11112;DHT22;5609;49.466;8.468;2022-12-18T13:14:26;0.60;99.90
11112;DHT22;5609;49.466;8.468;2022-12-18T13:17:14;0.70;99.90
11112;DHT22;5609;49.466;8.468;2022-12-18T13:19:41;0.60;99.90
11112;DHT22;5609;49.466;8.468;2022-12-18T13:22:21;0.50;99.90
11112;DHT22;5609;49.466;8.468;2022-12-18T13:24:49;0.40;99.90
11112;DHT22;5609;49.466;8.468;2022-12-18T13:27:46;0.30;99.90
11112;DHT22;5609;49.466;8.468;2022-12-18T13:30:50;0.20;99.90
11112;DHT22;5609;49.466;8.468;2022-12-18T13:33:47;0.20;99.90
11112;DHT22;5609;49.466;8.468;2022-12-18T13:36:25;0.20;99.90
11112;DHT22;5609;49.466;8.468;2022-12-18T13:39:20;0.10;99.90
11112;DHT22;5609;49.466;8.468;2022-12-18T13:41:48;0.00;99.90
11112;DHT22;5609;49.466;8.468;2022-12-18T13:44:26;-0.10;99.90
11112;DHT22;5609;49.466;8.468;2022-12-18T13:46:55;-0.20;99.90
11112;DHT22;5609;49.466;8.468;2022-12-18T13:49:23;-0.20;99.90
11112;DHT22;5609;49.466;8.468;2022-12-18T13:51:52;-0.20;99.90
11112;DHT22;5609;49.466;8.468;2022-12-18T13:54:25;-0.20;99.90
11112;DHT22;5609;49.466;8.468;2022-12-18T13:56:54;-0.10;99.90
11112;DHT22;5609;49.466;8.468;2022-12-18T13:59:22;-0.20;99.90
11112;DHT22;5609;49.466;8.468;2022-12-18T14:01:52;-0.20;99.90
11112;DHT22;5609;49.466;8.468;2022-12-18T14:04:23;-0.20;99.90
11112;DHT22;5609;49.466;8.468;2022-12-18T14:06:53;-0.20;99.90
11112;DHT22;5609;49.466;8.468;2022-12-18T14:09:25;-0.20;99.90
11112;DHT22;5609;49.466;8.468;2022-12-18T14:11:53;-0.10;99.90
11112;DHT22;5609;49.466;8.468;2022-12-18T14:14:44;-0.10;99.90
11112;DHT22;5609;49.466;8.468;2022-12-18T14:17:13;-0.30;99.90
11112;DHT22;5609;49.466;8.468;2022-12-18T14:19:42;-0.40;99.90
11112;DHT22;5609;49.466;8.468;2022-12-18T14:22:15;-0.40;99.90
11112;DHT22;5609;49.466;8.468;2022-12-18T14:24:44;-0.40;99.90
11112;DHT22;5609;49.466;8.468;2022-12-18T14:27:23;-0.40;99.90
11112;DHT22;5609;49.466;8.468;2022-12-18T14:29:50;-0.40;99.90
11112;DHT22;5609;49.466;8.468;2022-12-18T14:32:18;-0.50;99.90
11112;DHT22;5609;49.466;8.468;2022-12-18T14:34:47;-0.50;99.90
11112;DHT22;5609;49.466;8.468;2022-12-18T14:37:15;-0.60;99.90
11112;DHT22;5609;49.466;8.468;2022-12-18T14:39:54;-0.60;99.90
11112;DHT22;5609;49.466;8.468;2022-12-18T14:42:22;-0.60;99.90
11112;DHT22;5609;49.466;8.468;2022-12-18T14:44:48;-0.60;99.90
11112;DHT22;5609;49.466;8.468;2022-12-18T14:47:16;-0.70;99.90
11112;DHT22;5609;49.466;8.468;2022-12-18T14:49:43;-0.70;99.90
11112;DHT22;5609;49.466;8.468;2022-12-18T14:52:20;-0.70;99.90
11112;DHT22;5609;49.466;8.468;2022-12-18T14:54:49;-0.70;99.90
11112;DHT22;5609;49.466;8.468;2022-12-18T14:57:21;-0.80;99.90
11112;DHT22;5609;49.466;8.468;2022-12-18T14:59:48;-0.80;99.90
11112;DHT22;5609;49.466;8.468;2022-12-18T15:02:19;-0.90;99.90
11112;DHT22;5609;49.466;8.468;2022-12-18T15:04:47;-1.00;99.90
11112;DHT22;5609;49.466;8.468;2022-12-18T15:07:25;-1.00;99.90
11112;DHT22;5609;49.466;8.468;2022-12-18T15:10:04;-1.00;99.90
11112;DHT22;5609;49.466;8.468;2022-12-18T15:12:37;-1.00;99.90
11112;DHT22;5609;49.466;8.468;2022-12-18T15:15:45;-1.10;99.90
11112;DHT22;5609;49.466;8.468;2022-12-18T15:18:14;-1.10;99.90
11112;DHT22;5609;49.466;8.468;2022-12-18T15:20:44;-1.10;99.90
11112;DHT22;5609;49.466;8.468;2022-12-18T15:23:20;-1.20;99.90
11112;DHT22;5609;49.466;8.468;2022-12-18T15:25:48;-1.20;99.90
11112;DHT22;5609;49.466;8.468;2022-12-18T15:28:19;-1.20;99.90
11112;DHT22;5609;49.466;8.468;2022-12-18T15:31:05;-1.30;99.90
11112;DHT22;5609;49.466;8.468;2022-12-18T15:33:35;-1.30;99.90
11112;DHT22;5609;49.466;8.468;2022-12-18T15:36:03;-1.40;99.90
11112;DHT22;5609;49.466;8.468;2022-12-18T15:38:30;-1.40;99.90
11112;DHT22;5609;49.466;8.468;2022-12-18T15:40:57;-1.50;99.90
11112;DHT22;5609;49.466;8.468;2022-12-18T15:43:25;-1.60;99.90
11112;DHT22;5609;49.466;8.468;2022-12-18T15:46:03;-1.60;99.90
11112;DHT22;5609;49.466;8.468;2022-12-18T15:48:32;-1.70;99.90
11112;DHT22;5609;49.466;8.468;2022-12-18T15:51:00;-1.60;99.90
11112;DHT22;5609;49.466;8.468;2022-12-18T15:53:30;-1.70;99.90
11112;DHT22;5609;49.466;8.468;2022-12-18T15:55:57;-1.70;99.90
11112;DHT22;5609;49.466;8.468;2022-12-18T15:58:42;-1.80;99.90
11112;DHT22;5609;49.466;8.468;2022-12-18T16:01:10;-1.80;99.90
11112;DHT22;5609;49.466;8.468;2022-12-18T16:03:37;-1.70;99.90
11112;DHT22;5609;49.466;8.468;2022-12-18T16:06:05;-1.70;99.90
11112;DHT22;5609;49.466;8.468;2022-12-18T16:08:31;-1.70;99.90
11112;DHT22;5609;49.466;8.468;2022-12-18T16:10:59;-1.70;99.90
11112;DHT22;5609;49.466;8.468;2022-12-18T16:13:26;-1.70;99.90
11112;DHT22;5609;49.466;8.468;2022-12-18T16:15:52;-1.60;99.90
11112;DHT22;5609;49.466;8.468;2022-12-18T16:18:20;-1.60;99.90
11112;DHT22;5609;49.466;8.468;2022-12-18T16:20:47;-1.70;99.90
11112;DHT22;5609;49.466;8.468;2022-12-18T16:23:14;-1.80;99.90
11112;DHT22;5609;49.466;8.468;2022-12-18T16:25:41;-1.80;99.90
11112;DHT22;5609;49.466;8.468;2022-12-18T16:28:07;-2.00;99.90
11112;DHT22;5609;49.466;8.468;2022-12-18T16:30:34;-2.20;99.90
11112;DHT22;5609;49.466;8.468;2022-12-18T16:33:01;-2.30;99.90
11112;DHT22;5609;49.466;8.468;2022-12-18T16:35:29;-2.40;99.90
11112;DHT22;5609;49.466;8.468;2022-12-18T16:37:56;-2.50;99.90
11112;DHT22;5609;49.466;8.468;2022-12-18T16:40:22;-2.40;99.90
11112;DHT22;5609;49.466;8.468;2022-12-18T16:42:50;-2.40;99.90
11112;DHT22;5609;49.466;8.468;2022-12-18T16:45:18;-2.40;99.90
11112;DHT22;5609;49.466;8.468;2022-12-18T16:47:45;-2.30;99.90
11112;DHT22;5609;49.466;8.468;2022-12-18T16:50:12;-2.30;99.90
11112;DHT22;5609;49.466;8.468;2022-12-18T16:52:40;-2.30;99.90
11112;DHT22;5609;49.466;8.468;2022-12-18T16:55:08;-2.40;99.90
11112;DHT22;5609;49.466;8.468;2022-12-18T16:57:35;-2.40;99.90
11112;DHT22;5609;49.466;8.468;2022-12-18T17:00:03;-2.30;99.90
11112;DHT22;5609;49.466;8.468;2022-12-18T17:02:30;-2.30;99.90
11112;DHT22;5609;49.466;8.468;2022-12-18T17:04:57;-2.30;99.90
11112;DHT22;5609;49.466;8.468;2022-12-18T17:07:24;-2.30;99.90
11112;DHT22;5609;49.466;8.468;2022-12-18T17:09:54;-2.20;99.90
11112;DHT22;5609;49.466;8.468;2022-12-18T17:12:21;-2.20;99.90
11112;DHT22;5609;49.466;8.468;2022-12-18T17:14:48;-2.30;99.90
11112;DHT22;5609;49.466;8.468;2022-12-18T17:17:15;-2.30;99.90
11112;DHT22;5609;49.466;8.468;2022-12-18T17:19:41;-2.30;99.90
11112;DHT22;5609;49.466;8.468;2022-12-18T17:22:08;-2.20;99.90
11112;DHT22;5609;49.466;8.468;2022-12-18T17:24:35;-2.20;99.90
11112;DHT22;5609;49.466;8.468;2022-12-18T17:27:03;-2.30;99.90
11112;DHT22;5609;49.466;8.468;2022-12-18T17:29:30;-2.30;99.90
11112;DHT22;5609;49.466;8.468;2022-12-18T17:31:57;-2.30;99.90
11112;DHT22;5609;49.466;8.468;2022-12-18T17:34:24;-2.30;99.90
11112;DHT22;5609;49.466;8.468;2022-12-18T17:36:50;-2.20;99.90
11112;DHT22;5609;49.466;8.468;2022-12-18T17:39:19;-2.30;99.90
11112;DHT22;5609;49.466;8.468;2022-12-18T17:41:47;-2.30;99.90
11112;DHT22;5609;49.466;8.468;2022-12-18T17:44:15;-2.30;99.90
11112;DHT22;5609;49.466;8.468;2022-12-18T17:46:42;-2.30;99.90
11112;DHT22;5609;49.466;8.468;2022-12-18T17:49:09;-2.20;99.90
11112;DHT22;5609;49.466;8.468;2022-12-18T17:51:36;-2.20;99.90
11112;DHT22;5609;49.466;8.468;2022-12-18T17:54:03;-2.20;99.90
11112;DHT22;5609;49.466;8.468;2022-12-18T17:56:30;-2.20;99.90
11112;DHT22;5609;49.466;8.468;2022-12-18T17:58:57;-2.20;99.90
11112;DHT22;5609;49.466;8.468;2022-12-18T18:01:25;-2.20;99.90
11112;DHT22;5609;49.466;8.468;2022-12-18T18:03:53;-2.10;99.90
11112;DHT22;5609;49.466;8.468;2022-12-18T18:06:20;-2.10;99.90
11112;DHT22;5609;49.466;8.468;2022-12-18T18:08:47;-2.10;99.90
11112;DHT22;5609;49.466;8.468;2022-12-18T18:11:16;-2.10;99.90
11112;DHT22;5609;49.466;8.468;2022-12-18T18:14:03;-2.00;99.90
11112;DHT22;5609;49.466;8.468;2022-12-18T18:16:33;-2.00;99.90
11112;DHT22;5609;49.466;8.468;2022-12-18T18:19:02;-2.00;99.90
11112;DHT22;5609;49.466;8.468;2022-12-18T18:21:29;-2.10;99.90
11112;DHT22;5609;49.466;8.468;2022-12-18T18:23:59;-2.10;99.90
11112;DHT22;5609;49.466;8.468;2022-12-18T18:26:26;-2.10;99.90
11112;DHT22;5609;49.466;8.468;2022-12-18T18:28:56;-2.10;99.90
11112;DHT22;5609;49.466;8.468;2022-12-18T18:31:24;-2.00;99.90
11112;DHT22;5609;49.466;8.468;2022-12-18T18:33:53;-2.00;99.90
11112;DHT22;5609;49.466;8.468;2022-12-18T18:36:20;-2.10;99.90
11112;DHT22;5609;49.466;8.468;2022-12-18T18:38:47;-2.10;99.90
11112;DHT22;5609;49.466;8.468;2022-12-18T18:41:14;-2.10;99.90
11112;DHT22;5609;49.466;8.468;2022-12-18T18:43:41;-2.10;99.90
11112;DHT22;5609;49.466;8.468;2022-12-18T18:46:10;-2.00;99.90
11112;DHT22;5609;49.466;8.468;2022-12-18T18:48:37;-2.00;99.90
11112;DHT22;5609;49.466;8.468;2022-12-18T18:51:08;-2.00;99.90
11112;DHT22;5609;49.466;8.468;2022-12-18T18:53:36;-1.90;99.90
11112;DHT22;5609;49.466;8.468;2022-12-18T18:56:04;-2.00;99.90
11112;DHT22;5609;49.466;8.468;2022-12-18T18:58:31;-1.90;99.90
11112;DHT22;5609;49.466;8.468;2022-12-18T19:01:01;-1.90;99.90
11112;DHT22;5609;49.466;8.468;2022-12-18T19:03:28;-1.90;99.90
11112;DHT22;5609;49.466;8.468;2022-12-18T19:05:56;-1.80;99.90
11112;DHT22;5609;49.466;8.468;2022-12-18T19:08:27;-1.80;99.90
11112;DHT22;5609;49.466;8.468;2022-12-18T19:10:56;-1.70;99.90
11112;DHT22;5609;49.466;8.468;2022-12-18T19:13:24;-1.70;99.90
11112;DHT22;5609;49.466;8.468;2022-12-18T19:15:53;-1.60;99.90
11112;DHT22;5609;49.466;8.468;2022-12-18T19:18:21;-1.60;99.90
11112;DHT22;5609;49.466;8.468;2022-12-18T19:20:56;-1.60;99.90
11112;DHT22;5609;49.466;8.468;2022-12-18T19:23:24;-1.60;99.90
11112;DHT22;5609;49.466;8.468;2022-12-18T19:25:51;-1.60;99.90
11112;DHT22;5609;49.466;8.468;2022-12-18T19:28:20;-1.50;99.90
11112;DHT22;5609;49.466;8.468;2022-12-18T19:30:51;-1.50;99.90